Time;durP1;ratioP1;P1;durP2;ratioP2;P2;SDS_P1;SDS_P2;PMS_P1;PMS_P2;Temp;Humidity;BMP_temperature;BMP_pressure;BME280_temperature;BME280_humidity;BME280_pressure;Samples;Min_cycle;Max_cycle;Signal;HPM_P1;HPM_P2
2021/12/02 00:00:23;;;;;;;;;0.00;0.00;;;;;21.40;41.03;100295.44;5025410;28;45934;-74
2021/12/02 00:02:49;;;;;;;;;0.00;0.00;;;;;21.39;41.08;100299.13;5025501;28;45813;-73
2021/12/02 00:05:14;;;;;;;;;0.00;0.00;;;;;21.33;41.12;100292.75;5024944;28;49590;-73
2021/12/02 00:07:39;;;;;;;;;1.67;0.00;;;;;21.42;41.07;100314.59;5023511;28;45503;-74
2021/12/02 00:10:05;;;;;;;;;1.00;0.00;;;;;21.42;40.97;100313.81;5026815;28;45596;-72
2021/12/02 00:12:31;;;;;;;;;0.00;0.00;;;;;21.40;40.84;100313.97;5021766;27;45673;-74
2021/12/02 00:14:59;;;;;;;;;0.00;0.00;;;;;21.42;40.95;100322.53;5021221;28;46337;-73
2021/12/02 00:17:28;;;;;;;;;0.00;0.00;;;;;21.39;40.82;100317.66;5023464;28;45499;-73
2021/12/02 00:23:32;;;;;;;;;0.00;0.00;;;;;21.43;40.95;100329.47;5027956;28;45516;-77
2021/12/02 00:25:59;;;;;;;;;0.00;0.00;;;;;21.45;40.88;100327.47;5028548;28;45610;-77
2021/12/02 00:28:27;;;;;;;;;0.00;0.00;;;;;21.47;41.18;100330.72;5030569;28;45500;-76
2021/12/02 00:31:00;;;;;;;;;0.25;0.00;;;;;21.48;40.64;100334.22;5027266;28;45524;-76
2021/12/02 00:33:28;;;;;;;;;0.00;0.00;;;;;21.48;40.83;100332.38;5024992;27;45493;-76
2021/12/02 00:35:54;;;;;;;;;1.00;1.00;;;;;21.48;40.61;100342.16;5028051;28;47198;-76
2021/12/02 00:38:22;;;;;;;;;0.00;0.00;;;;;21.47;40.33;100346.63;5020657;28;45340;-76
2021/12/02 00:40:48;;;;;;;;;1.00;1.00;;;;;21.47;40.86;100351.09;5029860;28;45642;-77
2021/12/02 00:43:14;;;;;;;;;0.00;0.00;;;;;21.47;40.36;100359.03;5027371;27;45293;-77
2021/12/02 00:45:42;;;;;;;;;1.00;0.00;;;;;21.46;40.38;100366.16;5025002;28;45463;-76
2021/12/02 00:48:09;;;;;;;;;0.00;0.00;;;;;21.45;40.27;100368.97;5025182;28;45459;-76
2021/12/02 00:50:37;;;;;;;;;0.00;0.00;;;;;21.44;40.43;100370.84;5028020;28;45532;-76
2021/12/02 00:53:06;;;;;;;;;0.25;0.25;;;;;21.47;40.29;100380.19;5012828;28;45452;-76
2021/12/02 00:55:36;;;;;;;;;1.00;1.00;;;;;21.45;40.56;100377.75;5015214;28;45368;-76
2021/12/02 00:58:01;;;;;;;;;0.00;0.00;;;;;21.44;40.35;100384.06;5029259;28;45388;-76
2021/12/02 01:00:28;;;;;;;;;0.00;0.00;;;;;21.45;40.35;100387.50;5014987;28;45513;-76
2021/12/02 01:02:54;;;;;;;;;0.00;0.00;;;;;21.44;40.27;100397.31;5029654;28;45491;-76
2021/12/02 01:05:20;;;;;;;;;0.67;0.67;;;;;21.45;40.12;100400.75;5030436;28;45995;-76
2021/12/02 01:07:45;;;;;;;;;0.75;0.75;;;;;21.45;40.24;100398.09;5032463;27;45253;-77
2021/12/02 01:10:11;;;;;;;;;0.00;0.00;;;;;21.44;39.97;100399.13;5034970;28;45415;-76
2021/12/02 01:12:37;;;;;;;;;1.00;0.00;;;;;21.44;39.90;100405.25;5032855;28;45794;-76
2021/12/02 01:15:05;;;;;;;;;0.25;0.00;;;;;21.42;40.07;100399.28;5031216;28;46071;-76
2021/12/02 01:17:31;;;;;;;;;0.00;0.00;;;;;21.45;39.85;100403.38;5031153;28;45559;-76
2021/12/02 01:19:56;;;;;;;;;1.00;1.00;;;;;21.44;39.95;100402.59;5032552;28;45478;-76
2021/12/02 01:22:24;;;;;;;;;1.00;1.00;;;;;21.45;39.70;100408.69;5013209;28;45460;-76
2021/12/02 01:24:52;;;;;;;;;0.00;0.00;;;;;21.45;39.92;100416.63;5031865;28;46160;-77
2021/12/02 01:27:20;;;;;;;;;0.00;0.00;;;;;21.44;39.77;100421.13;5032423;27;45482;-76
2021/12/02 01:29:47;;;;;;;;;0.00;0.00;;;;;21.44;39.59;100421.13;5032570;28;45320;-76
2021/12/02 01:32:13;;;;;;;;;1.67;0.00;;;;;21.44;40.16;100434.34;5032763;28;45586;-76
2021/12/02 01:34:46;;;;;;;;;2.00;0.00;;;;;21.44;39.69;100442.28;5033248;28;45289;-76
2021/12/02 01:37:13;;;;;;;;;0.67;0.00;;;;;21.42;39.87;100451.41;5032245;28;45446;-76
2021/12/02 01:39:38;;;;;;;;;1.00;1.00;;;;;21.42;39.83;100456.72;5031090;28;45422;-76
2021/12/02 01:42:10;;;;;;;;;0.00;0.00;;;;;21.42;39.66;100465.44;5032372;28;45343;-76
2021/12/02 01:44:41;;;;;;;;;3.00;0.00;;;;;21.42;39.67;100454.88;5032244;28;45420;-76
2021/12/02 01:47:12;;;;;;;;;0.25;0.25;;;;;21.42;39.97;100475.25;5032056;27;45319;-76
2021/12/02 01:49:41;;;;;;;;;0.00;0.00;;;;;21.39;39.84;100468.50;5033566;28;45443;-77
2021/12/02 01:52:11;;;;;;;;;0.67;0.67;;;;;21.40;39.76;100475.41;5033689;27;45629;-76
2021/12/02 01:54:43;;;;;;;;;0.00;0.00;;;;;21.38;39.69;100483.53;5031979;27;46415;-76
2021/12/02 01:57:26;;;;;;;;;0.00;0.00;;;;;21.38;39.39;100485.38;5030564;28;45503;-76
2021/12/02 01:59:56;;;;;;;;;1.50;1.00;;;;;21.36;39.70;100477.63;5032154;28;45452;-76
2021/12/02 02:02:24;;;;;;;;;1.00;1.00;;;;;21.37;39.39;100481.06;5032350;27;45452;-76
2021/12/02 02:04:50;;;;;;;;;1.00;1.00;;;;;21.34;39.88;100484.09;5031740;28;46596;-76
2021/12/02 02:07:18;;;;;;;;;1.00;1.00;;;;;21.36;39.40;100490.84;5034077;28;45421;-76
2021/12/02 02:09:44;;;;;;;;;0.00;0.00;;;;;21.33;39.80;100498.34;5032153;27;45408;-76
2021/12/02 02:12:12;;;;;;;;;0.00;0.00;;;;;21.34;39.72;100500.78;5031857;28;45228;-76
2021/12/02 02:14:40;;;;;;;;;0.33;0.33;;;;;21.35;39.34;100510.38;5031733;27;46214;-76
2021/12/02 02:17:28;;;;;;;;;1.33;0.33;;;;;21.35;39.71;100509.53;5030723;27;45409;-77
2021/12/02 02:19:54;;;;;;;;;0.00;0.00;;;;;21.33;39.36;100507.09;5031671;28;45417;-77
2021/12/02 02:22:22;;;;;;;;;0.00;0.00;;;;;21.33;39.25;100517.69;5034016;28;45852;-77
2021/12/02 02:24:49;;;;;;;;;0.00;0.00;;;;;21.34;39.65;100529.88;5031507;27;46291;-77
2021/12/02 02:27:15;;;;;;;;;1.33;0.00;;;;;21.34;39.41;100531.75;5031511;27;45456;-76
2021/12/02 02:29:40;;;;;;;;;0.00;0.00;;;;;21.32;39.21;100534.56;5031779;28;45442;-76
2021/12/02 02:32:06;;;;;;;;;0.00;0.00;;;;;21.33;39.58;100540.66;5031860;28;45471;-76
2021/12/02 02:34:32;;;;;;;;;1.00;1.00;;;;;21.32;39.39;100542.50;5033214;27;45937;-76
2021/12/02 02:37:01;;;;;;;;;0.00;0.00;;;;;21.31;39.60;100546.16;5030950;28;45762;-76
2021/12/02 02:39:29;;;;;;;;;1.00;0.00;;;;;21.31;39.44;100542.69;5031783;28;45343;-76
2021/12/02 02:41:58;;;;;;;;;0.25;0.25;;;;;21.31;39.25;100540.88;5031694;27;45436;-76
2021/12/02 02:44:25;;;;;;;;;0.33;0.00;;;;;21.31;39.47;100540.03;5031560;28;45442;-76
2021/12/02 02:46:51;;;;;;;;;0.33;0.33;;;;;21.30;39.19;100541.84;5031403;28;45379;-76
2021/12/02 02:49:16;;;;;;;;;0.00;0.00;;;;;21.29;39.49;100554.25;5032219;28;45535;-76
2021/12/02 02:51:43;;;;;;;;;0.33;0.33;;;;;21.30;39.34;100549.78;5031330;28;45521;-76
2021/12/02 02:54:12;;;;;;;;;0.00;0.00;;;;;21.32;39.10;100552.25;5031118;28;47136;-76
2021/12/02 02:56:49;;;;;;;;;0.00;0.00;;;;;21.30;39.29;100560.38;5030047;27;45533;-76
2021/12/02 03:08:12;;;;;;;;;0.50;0.50;;;;;21.28;38.88;100578.28;4965388;28;45397;-76
2021/12/02 03:13:22;;;;;;;;;0.00;0.00;;;;;21.28;39.23;100580.91;5014612;28;45511;-76
2021/12/02 03:18:34;;;;;;;;;0.00;0.00;;;;;21.28;39.19;100596.78;5011320;28;45452;-76
2021/12/02 03:20:59;;;;;;;;;0.00;0.00;;;;;21.28;39.23;100586.22;5012148;28;45315;-76
2021/12/02 03:23:25;;;;;;;;;1.50;0.00;;;;;21.29;38.99;100598.41;5016336;28;45322;-77
2021/12/02 03:25:50;;;;;;;;;1.00;0.00;;;;;21.27;38.95;100601.25;5027105;28;46184;-76
2021/12/02 03:28:16;;;;;;;;;0.00;0.00;;;;;21.28;38.92;100587.03;5013851;28;45509;-76
2021/12/02 03:30:41;;;;;;;;;0.00;0.00;;;;;21.28;38.71;100592.31;5011893;28;45500;-76
2021/12/02 03:33:07;;;;;;;;;0.00;0.00;;;;;21.27;38.91;100598.59;5000771;28;45340;-76
2021/12/02 03:35:32;;;;;;;;;1.00;1.00;;;;;21.29;39.09;100595.78;4968540;28;45563;-76
2021/12/02 03:37:58;;;;;;;;;2.00;0.25;;;;;21.28;38.82;100597.63;4969673;28;45455;-76
2021/12/02 03:40:23;;;;;;;;;0.00;0.00;;;;;21.29;38.93;100598.41;4972003;28;45830;-76
2021/12/02 03:42:52;;;;;;;;;0.00;0.00;;;;;21.29;39.07;100607.19;4979022;28;45467;-76
2021/12/02 03:45:21;;;;;;;;;2.75;0.00;;;;;21.29;38.59;100603.72;5025553;28;48178;-76
2021/12/02 03:47:47;;;;;;;;;0.00;0.00;;;;;21.28;39.18;100605.56;5030157;28;45308;-76
2021/12/02 03:50:13;;;;;;;;;0.00;0.00;;;;;21.28;38.73;100607.38;5030892;28;45681;-76
2021/12/02 03:52:38;;;;;;;;;0.25;0.00;;;;;21.29;38.93;100620.41;5031742;28;45475;-76
2021/12/02 03:55:04;;;;;;;;;0.75;0.75;;;;;21.32;39.01;100618.41;5030317;28;45392;-76
2021/12/02 03:57:31;;;;;;;;;0.00;0.00;;;;;21.29;38.89;100620.41;5030589;28;45413;-76
2021/12/02 03:59:57;;;;;;;;;0.00;0.00;;;;;21.31;38.79;100630.00;5030804;28;45391;-76
2021/12/02 04:02:23;;;;;;;;;0.25;0.00;;;;;21.29;38.80;100631.00;5030441;28;45602;-77
2021/12/02 04:04:48;;;;;;;;;0.00;0.00;;;;;21.28;38.97;100634.66;5030319;28;45345;-76
2021/12/02 04:07:17;;;;;;;;;0.00;0.00;;;;;21.26;38.90;100634.00;5032711;28;45282;-76
2021/12/02 04:09:44;;;;;;;;;0.75;0.00;;;;;21.29;38.59;100638.09;5030629;28;45427;-76
2021/12/02 04:12:17;;;;;;;;;0.00;0.00;;;;;21.28;39.10;100639.97;5030393;27;45484;-76
2021/12/02 04:14:52;;;;;;;;;2.00;0.00;;;;;21.27;38.49;100637.47;5028957;27;46423;-77
2021/12/02 04:17:28;;;;;;;;;0.00;0.00;;;;;21.28;38.91;100644.41;5030092;28;45464;-76
2021/12/02 04:19:53;;;;;;;;;0.00;0.00;;;;;21.29;38.57;100640.75;5030233;27;45363;-77
2021/12/02 04:22:18;;;;;;;;;0.00;0.00;;;;;21.26;38.51;100641.94;5032215;28;47101;-76
2021/12/02 04:24:44;;;;;;;;;0.00;0.00;;;;;21.27;38.69;100640.13;5030225;28;46342;-76
2021/12/02 04:27:09;;;;;;;;;0.25;0.00;;;;;21.26;38.67;100641.13;5030029;28;45582;-76
2021/12/02 04:29:34;;;;;;;;;0.00;0.00;;;;;21.26;38.84;100646.44;5029977;28;45483;-77
2021/12/02 04:32:00;;;;;;;;;0.00;0.00;;;;;21.27;38.65;100648.88;5029095;27;45323;-76
2021/12/02 04:34:25;;;;;;;;;1.00;1.00;;;;;21.27;38.25;100656.81;5032194;28;46135;-77
2021/12/02 04:36:50;;;;;;;;;0.25;0.25;;;;;21.27;38.52;100646.25;5029952;28;45548;-76
2021/12/02 04:39:16;;;;;;;;;1.00;0.00;;;;;21.26;38.63;100641.94;5030145;28;45415;-77
2021/12/02 04:41:42;;;;;;;;;0.00;0.00;;;;;21.25;38.76;100642.13;5032774;27;45411;-76
2021/12/02 04:44:07;;;;;;;;;0.00;0.00;;;;;21.25;38.74;100645.59;5032678;27;46273;-76
2021/12/02 04:46:34;;;;;;;;;0.75;0.00;;;;;21.24;38.73;100640.47;5034331;28;45319;-76
2021/12/02 04:48:59;;;;;;;;;0.00;0.00;;;;;21.26;38.48;100644.59;5033807;28;45505;-76
2021/12/02 04:51:24;;;;;;;;;0.00;0.00;;;;;21.27;38.27;100645.41;5032823;28;45391;-76
2021/12/02 04:53:50;;;;;;;;;0.00;0.00;;;;;21.22;38.53;100643.31;5031158;28;46441;-76
2021/12/02 04:56:15;;;;;;;;;0.50;0.00;;;;;21.22;38.77;100648.59;5030842;28;45503;-76
2021/12/02 04:58:41;;;;;;;;;0.25;0.25;;;;;21.26;38.74;100654.38;5033295;27;45520;-76
2021/12/02 05:01:06;;;;;;;;;0.00;0.00;;;;;21.23;38.23;100652.06;5034571;28;45319;-77
2021/12/02 05:03:31;;;;;;;;;0.00;0.00;;;;;21.23;38.55;100652.91;5032786;27;45471;-76
2021/12/02 05:05:57;;;;;;;;;0.00;0.00;;;;;21.24;38.33;100659.00;5032698;28;45486;-76
2021/12/02 05:08:22;;;;;;;;;1.75;0.00;;;;;21.25;38.54;100661.47;5033070;27;45418;-77
2021/12/02 05:10:48;;;;;;;;;0.00;0.00;;;;;21.23;38.36;100649.44;5033429;28;45347;-77
2021/12/02 05:13:13;;;;;;;;;0.00;0.00;;;;;21.22;38.37;100650.41;5032732;28;45375;-76
2021/12/02 05:15:38;;;;;;;;;0.25;0.00;;;;;21.25;38.55;100660.66;5032863;28;45386;-77
2021/12/02 05:18:04;;;;;;;;;0.00;0.00;;;;;21.24;38.51;100661.63;5032194;27;45383;-76
2021/12/02 05:20:30;;;;;;;;;0.00;0.00;;;;;21.23;38.52;100662.66;5032644;27;45481;-76
2021/12/02 05:22:55;;;;;;;;;0.00;0.00;;;;;21.23;38.20;100654.72;5032648;28;45380;-77
2021/12/02 05:25:21;;;;;;;;;0.00;0.00;;;;;21.20;38.41;100649.78;5034677;28;45325;-76
2021/12/02 05:27:46;;;;;;;;;0.00;0.00;;;;;21.21;38.31;100654.88;5032157;28;45261;-77
2021/12/02 05:30:12;;;;;;;;;0.00;0.00;;;;;21.19;38.37;100635.72;5032461;28;45563;-77
2021/12/02 05:32:38;;;;;;;;;0.00;0.00;;;;;21.20;38.32;100655.06;5031314;27;46118;-76
2021/12/02 05:35:04;;;;;;;;;0.00;0.00;;;;;21.20;38.41;100657.72;5032624;28;45216;-76
2021/12/02 05:37:29;;;;;;;;;0.00;0.00;;;;;21.20;38.57;100673.59;5034547;28;45326;-77
2021/12/02 05:39:55;;;;;;;;;2.00;0.00;;;;;21.22;38.47;100661.00;5031292;28;45444;-77
2021/12/02 05:42:20;;;;;;;;;0.00;0.00;;;;;21.21;38.39;100667.31;5031824;28;45503;-76
2021/12/02 05:44:46;;;;;;;;;0.00;0.00;;;;;21.17;38.32;100666.84;5032300;28;45554;-77
2021/12/02 05:47:12;;;;;;;;;0.00;0.00;;;;;21.20;38.50;100676.25;5032546;28;45386;-76
2021/12/02 05:49:37;;;;;;;;;0.50;0.00;;;;;21.22;38.37;100680.34;5033348;28;45388;-76
2021/12/02 05:52:03;;;;;;;;;0.75;0.50;;;;;21.22;38.28;100682.16;5031751;28;45504;-76
2021/12/02 05:54:28;;;;;;;;;0.00;0.00;;;;;21.22;38.30;100690.94;5032107;27;45376;-76
2021/12/02 05:56:54;;;;;;;;;0.00;0.00;;;;;21.21;38.27;100693.78;5031797;27;45401;-77
2021/12/02 05:59:19;;;;;;;;;0.00;0.00;;;;;21.20;38.35;100689.47;5031944;28;45314;-77
2021/12/02 06:01:44;;;;;;;;;0.00;0.00;;;;;21.22;38.20;100692.75;5032424;27;45462;-76
2021/12/02 06:04:11;;;;;;;;;2.67;0.00;;;;;21.20;38.37;100692.94;5034077;27;45481;-76
2021/12/02 06:06:37;;;;;;;;;1.00;0.00;;;;;21.22;38.24;100696.22;5031987;28;45347;-76
2021/12/02 06:09:04;;;;;;;;;0.00;0.00;;;;;21.22;38.12;100693.59;5031878;28;45386;-76
2021/12/02 06:11:29;;;;;;;;;0.00;0.00;;;;;21.20;37.87;100686.81;5030470;27;45403;-76
2021/12/02 06:13:54;;;;;;;;;0.00;0.00;;;;;21.21;38.00;100691.94;5032105;28;45358;-77
2021/12/02 06:16:21;;;;;;;;;0.00;0.00;;;;;21.21;38.41;100683.19;5034018;28;46075;-77
2021/12/02 06:18:46;;;;;;;;;0.00;0.00;;;;;21.21;38.15;100686.63;5031960;28;45292;-76
2021/12/02 06:21:12;;;;;;;;;0.00;0.00;;;;;21.22;38.29;100690.09;5031479;28;45946;-77
2021/12/02 06:23:40;;;;;;;;;0.00;0.00;;;;;21.22;38.01;100690.09;5031985;28;45703;-76
2021/12/02 06:26:05;;;;;;;;;1.00;0.00;;;;;21.21;37.90;100691.13;5032264;27;45284;-76
2021/12/02 06:28:31;;;;;;;;;0.00;0.00;;;;;21.21;38.01;100691.94;5033692;27;45318;-77
2021/12/02 06:30:56;;;;;;;;;0.00;0.00;;;;;21.21;38.38;100699.88;5032204;28;46317;-77
2021/12/02 06:33:22;;;;;;;;;0.00;0.00;;;;;21.21;38.21;100697.22;5022843;27;45560;-76
2021/12/02 06:35:47;;;;;;;;;1.50;0.00;;;;;21.21;38.36;100702.50;5031874;28;45256;-77
2021/12/02 06:38:12;;;;;;;;;0.00;0.00;;;;;21.21;37.88;100699.06;5029987;28;45481;-76
2021/12/02 06:40:39;;;;;;;;;0.00;0.00;;;;;21.21;38.23;100704.34;5031090;28;45610;-73
2021/12/02 06:43:05;;;;;;;;;0.00;0.00;;;;;21.12;38.05;100688.53;5031232;27;45424;-73
2021/12/02 06:45:30;;;;;;;;;0.00;0.00;;;;;21.18;38.10;100701.03;5030243;28;45473;-71
2021/12/02 06:48:00;;;;;;;;;0.00;0.00;;;;;21.18;38.14;100701.03;5030267;28;45425;-74
2021/12/02 06:50:27;;;;;;;;;0.00;0.00;;;;;21.20;37.92;100706.16;5030094;28;46307;-75
2021/12/02 06:52:54;;;;;;;;;0.50;0.00;;;;;21.18;38.13;100708.19;5030112;28;45461;-74
2021/12/02 06:55:21;;;;;;;;;2.00;0.50;;;;;21.16;38.21;100702.22;5017248;28;45424;-74
2021/12/02 06:57:47;;;;;;;;;0.00;0.00;;;;;21.18;38.32;100711.63;5030798;28;45470;-73
2021/12/02 07:00:15;;;;;;;;;0.00;0.00;;;;;21.18;38.32;100719.56;5031166;28;46273;-74
2021/12/02 07:02:42;;;;;;;;;0.00;0.00;;;;;21.17;38.20;100715.28;5030720;28;47445;-74
2021/12/02 07:05:10;;;;;;;;;1.00;0.00;;;;;21.17;38.36;100715.28;5031096;28;45440;-75
2021/12/02 07:07:38;;;;;;;;;0.00;0.00;;;;;21.18;38.55;100716.13;5031817;28;45437;-76
2021/12/02 07:10:11;;;;;;;;;0.00;0.00;;;;;21.18;38.31;100721.41;5031375;28;45428;-75
2021/12/02 07:12:39;;;;;;;;;3.00;0.00;;;;;21.20;38.45;100718.56;5030650;28;45474;-77
2021/12/02 07:15:10;;;;;;;;;0.33;0.00;;;;;21.20;38.34;100721.22;5030810;28;45352;-76
2021/12/02 07:17:35;;;;;;;;;1.33;0.00;;;;;21.20;38.25;100723.88;5030290;27;45433;-75
2021/12/02 07:20:01;;;;;;;;;2.00;0.00;;;;;21.17;38.46;100717.09;5030384;28;46878;-78
2021/12/02 07:22:27;;;;;;;;;0.00;0.00;;;;;21.20;38.24;100719.41;5029689;28;45578;-73
2021/12/02 07:24:52;;;;;;;;;0.00;0.00;;;;;21.20;38.50;100727.34;5030503;28;45615;-73
2021/12/02 07:27:18;;;;;;;;;0.33;0.33;;;;;21.21;38.24;100734.25;5030930;28;45506;-73
2021/12/02 07:29:43;;;;;;;;;0.00;0.00;;;;;21.21;38.03;100734.25;5011341;28;47059;-73
2021/12/02 07:32:11;;;;;;;;;1.00;0.00;;;;;21.21;38.30;100734.25;5031034;27;45420;-73
2021/12/02 07:34:43;;;;;;;;;1.25;0.00;;;;;21.21;38.32;100744.84;5032606;28;45430;-73
2021/12/02 07:37:15;;;;;;;;;1.25;0.00;;;;;21.21;38.09;100741.41;5032736;28;45689;-73
2021/12/02 07:39:41;;;;;;;;;0.75;0.00;;;;;21.20;38.40;100745.88;5030396;28;46940;-73
2021/12/02 07:42:06;;;;;;;;;0.00;0.00;;;;;21.19;38.17;100746.84;5030637;28;45478;-73
2021/12/02 07:44:35;;;;;;;;;2.00;0.00;;;;;21.21;38.24;100744.84;5031035;28;45505;-73
2021/12/02 07:47:02;;;;;;;;;0.00;0.00;;;;;21.20;38.35;100742.38;5013878;28;45496;-73
2021/12/02 07:49:28;;;;;;;;;0.00;0.00;;;;;21.20;38.19;100737.09;5028485;28;46077;-73
2021/12/02 07:52:00;;;;;;;;;0.00;0.00;;;;;21.18;37.81;100738.09;5030889;28;45527;-73
2021/12/02 07:54:27;;;;;;;;;0.75;0.75;;;;;21.21;37.98;100749.34;5030427;28;45309;-73
2021/12/02 07:56:53;;;;;;;;;2.00;0.00;;;;;21.21;38.25;100750.13;5030499;28;45410;-73
2021/12/02 07:59:19;;;;;;;;;0.00;0.00;;;;;21.20;38.45;100759.09;5045983;28;46555;-73
2021/12/02 08:01:45;;;;;;;;;1.50;1.50;;;;;21.19;38.03;100765.38;5030798;28;45236;-73
2021/12/02 08:04:11;;;;;;;;;0.00;0.00;;;;;21.18;38.33;100772.47;5032972;28;45332;-73
2021/12/02 08:06:36;;;;;;;;;0.00;0.00;;;;;21.20;37.98;100774.97;5021075;27;45391;-72
2021/12/02 08:09:03;;;;;;;;;0.00;0.00;;;;;21.20;38.04;100779.44;5028719;28;45250;-73
2021/12/02 08:11:30;;;;;;;;;0.00;0.00;;;;;21.18;38.41;100784.91;5030448;28;45411;-72
2021/12/02 08:13:57;;;;;;;;;0.00;0.00;;;;;21.18;38.50;100791.00;5030587;28;45367;-74
2021/12/02 08:16:22;;;;;;;;;0.00;0.00;;;;;21.19;38.11;100791.81;5034836;27;45429;-73
2021/12/02 08:18:47;;;;;;;;;0.00;0.00;;;;;21.12;38.20;100777.66;5033042;28;45754;-73
2021/12/02 08:21:13;;;;;;;;;1.50;1.00;;;;;21.16;37.86;100794.81;5033244;28;45352;-72
2021/12/02 08:23:38;;;;;;;;;1.00;1.00;;;;;21.16;38.13;100800.94;5033113;27;45473;-73
2021/12/02 08:26:04;;;;;;;;;0.00;0.00;;;;;21.14;37.89;100797.66;5032071;28;45355;-73
2021/12/02 08:28:29;;;;;;;;;1.00;0.00;;;;;21.17;38.31;100805.25;5035485;28;46131;-72
2021/12/02 08:30:56;;;;;;;;;0.00;0.00;;;;;21.18;38.18;100798.13;5033292;28;45232;-73
2021/12/02 08:33:22;;;;;;;;;0.25;0.00;;;;;21.17;38.24;100812.34;5033300;27;45325;-73
2021/12/02 08:35:48;;;;;;;;;0.25;0.25;;;;;21.15;38.10;100794.03;5033048;28;45489;-72
2021/12/02 08:38:16;;;;;;;;;0.50;0.00;;;;;21.17;37.80;100799.94;5032821;28;46057;-73
2021/12/02 08:40:42;;;;;;;;;1.00;1.00;;;;;21.12;37.81;100801.47;5033791;28;45345;-73
2021/12/02 08:43:13;;;;;;;;;2.00;2.00;;;;;21.17;37.97;100817.66;5034786;27;45242;-72
2021/12/02 08:45:40;;;;;;;;;0.00;0.00;;;;;21.17;38.23;100826.41;5032982;28;45520;-73
2021/12/02 08:48:06;;;;;;;;;0.25;0.00;;;;;21.14;38.13;100833.88;5031689;28;45398;-72
2021/12/02 08:50:33;;;;;;;;;0.50;0.00;;;;;21.17;37.92;100834.34;5033076;28;45453;-72
2021/12/02 08:53:00;;;;;;;;;0.25;0.00;;;;;21.16;37.97;100832.69;5032921;28;45338;-72
2021/12/02 08:55:29;;;;;;;;;1.00;0.00;;;;;21.15;37.73;100839.00;5035069;28;45234;-73
2021/12/02 08:57:54;;;;;;;;;1.75;0.00;;;;;21.13;38.41;100826.94;5032695;27;46935;-73
2021/12/02 09:00:25;;;;;;;;;2.00;1.00;;;;;21.16;38.15;100837.97;5032773;28;45421;-73
2021/12/02 09:02:52;;;;;;;;;0.00;0.00;;;;;21.15;37.87;100838.16;5032738;28;45186;-73
2021/12/02 09:05:18;;;;;;;;;1.25;0.25;;;;;21.15;38.10;100831.06;5031143;27;45605;-73
2021/12/02 09:07:43;;;;;;;;;2.00;1.00;;;;;21.16;38.21;100839.78;5033011;28;46236;-72
2021/12/02 09:10:09;;;;;;;;;0.00;0.00;;;;;21.16;38.11;100853.03;5034444;28;45452;-72
2021/12/02 09:12:35;;;;;;;;;1.50;0.50;;;;;21.15;38.04;100848.75;5033226;28;45319;-73
2021/12/02 09:15:02;;;;;;;;;1.25;1.00;;;;;21.13;38.12;100840.97;5032760;27;45465;-73
2021/12/02 09:17:27;;;;;;;;;0.00;0.00;;;;;21.12;38.00;100849.91;5032440;28;46674;-73
2021/12/02 09:19:53;;;;;;;;;0.50;0.50;;;;;21.14;38.00;100855.03;5031751;27;45450;-73
2021/12/02 09:22:18;;;;;;;;;0.00;0.00;;;;;21.09;37.92;100857.38;5013539;27;45632;-73
2021/12/02 09:24:44;;;;;;;;;2.00;0.25;;;;;21.13;37.95;100862.13;5029585;28;45290;-73
2021/12/02 09:27:10;;;;;;;;;0.00;0.00;;;;;21.15;37.66;100869.91;5030630;28;46108;-72
2021/12/02 09:29:35;;;;;;;;;0.50;0.50;;;;;21.13;37.99;100867.44;5032580;27;45507;-73
2021/12/02 09:32:01;;;;;;;;;0.00;0.00;;;;;21.14;38.05;100865.59;5032765;28;45679;-73
2021/12/02 09:34:27;;;;;;;;;1.50;1.00;;;;;21.14;37.80;100874.38;5030021;28;45577;-73
2021/12/02 09:36:53;;;;;;;;;0.75;0.00;;;;;21.13;37.89;100875.38;5032115;28;46223;-73
2021/12/02 09:39:19;;;;;;;;;0.00;0.00;;;;;21.14;37.98;100869.09;5032311;28;45538;-73
2021/12/02 09:41:46;;;;;;;;;0.00;0.00;;;;;21.15;37.82;100873.38;5032202;27;45469;-73
2021/12/02 09:44:12;;;;;;;;;1.50;0.00;;;;;21.16;37.71;100879.47;5031092;27;45615;-73
2021/12/02 09:46:40;;;;;;;;;0.50;0.00;;;;;21.16;38.05;100887.41;5033310;28;46042;-73
2021/12/02 09:49:07;;;;;;;;;0.00;0.00;;;;;21.16;37.65;100882.13;5033901;28;45442;-73
2021/12/02 09:51:40;;;;;;;;;1.00;1.00;;;;;21.16;37.74;100896.19;5032213;28;45435;-73
2021/12/02 09:56:54;;;;;;;;;0.33;0.33;;;;;21.16;37.83;100888.25;4974643;28;45822;-73
2021/12/02 10:01:58;;;;;;;;;0.00;0.00;;;;;21.14;37.97;100886.78;4978334;28;45281;-73
2021/12/02 10:04:26;;;;;;;;;0.67;0.67;;;;;21.15;37.70;100885.78;4968346;28;45673;-73
2021/12/02 10:07:28;;;;;;;;;0.00;0.00;;;;;21.15;37.86;100896.38;4974220;28;47107;-73
2021/12/02 10:13:16;;;;;;;;;0.75;0.75;;;;;21.12;37.44;100892.25;4974698;28;45477;-73
2021/12/02 10:15:50;;;;;;;;;0.00;0.00;;;;;21.15;37.54;100891.09;4974778;28;45563;-73
2021/12/02 10:18:17;;;;;;;;;0.00;0.00;;;;;21.14;37.68;100894.72;4985542;28;47227;-73
2021/12/02 10:20:45;;;;;;;;;0.00;0.00;;;;;21.14;37.44;100890.25;4974407;28;45483;-73
2021/12/02 10:23:37;;;;;;;;;0.75;0.75;;;;;21.14;37.83;100895.53;4978260;28;45375;-73
2021/12/02 10:26:05;;;;;;;;;2.00;0.00;;;;;21.12;37.50;100886.13;4978844;28;45465;-73
2021/12/02 10:28:41;;;;;;;;;0.00;0.00;;;;;21.13;37.49;100883.28;4968556;28;47405;-73
2021/12/02 10:31:07;;;;;;;;;0.75;0.75;;;;;21.14;37.52;100881.47;4982849;28;45444;-72
2021/12/02 10:33:46;;;;;;;;;0.75;0.75;;;;;21.14;37.63;100881.47;4994119;28;45725;-73
2021/12/02 10:36:36;;;;;;;;;1.00;0.00;;;;;21.13;37.63;100888.59;5031654;28;45492;-73
2021/12/02 10:39:21;;;;;;;;;0.00;0.00;;;;;21.13;37.68;100887.78;5030366;27;46380;-73
2021/12/02 10:41:59;;;;;;;;;0.75;0.75;;;;;21.13;37.88;100883.28;5031434;28;45234;-73
2021/12/02 10:44:28;;;;;;;;;1.25;1.25;;;;;21.13;37.82;100877.22;5030479;28;45492;-73
2021/12/02 10:47:03;;;;;;;;;1.00;1.00;;;;;21.14;37.36;100884.13;5030915;27;47198;-73
2021/12/02 10:49:32;;;;;;;;;2.00;0.00;;;;;21.13;37.35;100875.38;5029317;28;45982;-73
2021/12/02 10:52:01;;;;;;;;;0.75;0.75;;;;;21.13;37.27;100867.44;5031818;28;45302;-73
2021/12/02 10:54:33;;;;;;;;;0.00;0.00;;;;;21.13;37.35;100872.72;5031461;28;45374;-73
2021/12/02 10:57:00;;;;;;;;;2.75;0.75;;;;;21.12;37.63;100857.84;5031266;28;45504;-73
2021/12/02 10:59:48;;;;;;;;;0.00;0.00;;;;;21.12;37.25;100863.16;5025944;28;46168;-73
2021/12/02 11:02:28;;;;;;;;;0.00;0.00;;;;;21.12;37.56;100854.38;5016985;28;45435;-73
2021/12/02 11:04:58;;;;;;;;;1.25;0.00;;;;;21.12;37.54;100857.84;5031524;28;45442;-73
2021/12/02 11:07:27;;;;;;;;;0.00;0.00;;;;;21.12;37.65;100846.44;5033314;28;45666;-72
2021/12/02 11:09:54;;;;;;;;;2.00;0.00;;;;;21.13;37.29;100848.09;5031182;28;47046;-72
2021/12/02 11:12:31;;;;;;;;;1.00;0.00;;;;;21.12;37.52;100844.63;5031018;28;45860;-73
2021/12/02 11:15:16;;;;;;;;;0.00;0.00;;;;;21.12;37.36;100849.09;5031169;27;45465;-73
2021/12/02 11:17:51;;;;;;;;;0.00;0.00;;;;;21.11;37.50;100847.44;5030748;27;45476;-73
2021/12/02 11:20:18;;;;;;;;;0.00;0.00;;;;;21.12;37.27;100839.34;5030726;27;46379;-73
2021/12/02 11:22:44;;;;;;;;;0.75;0.00;;;;;21.12;37.61;100838.50;5032219;28;45226;-72
2021/12/02 11:25:11;;;;;;;;;1.00;1.00;;;;;21.13;37.60;100834.88;5030812;28;45151;-73
2021/12/02 11:27:43;;;;;;;;;1.00;1.00;;;;;21.14;37.48;100833.88;5031008;27;45372;-73
2021/12/02 11:30:17;;;;;;;;;2.00;1.00;;;;;21.15;37.44;100838.16;5030554;27;46189;-72
2021/12/02 11:32:50;;;;;;;;;1.00;0.00;;;;;21.11;37.54;100824.44;5031006;27;45732;-73
2021/12/02 11:35:23;;;;;;;;;0.00;0.00;;;;;21.13;37.42;100819.81;5031248;28;45489;-73
2021/12/02 11:38:22;;;;;;;;;2.00;1.00;;;;;21.15;37.34;100812.53;5031110;28;45503;-73
2021/12/02 11:40:51;;;;;;;;;0.50;0.00;;;;;21.14;37.13;100818.00;5028545;28;48391;-73
2021/12/02 11:43:19;;;;;;;;;2.00;1.00;;;;;21.13;37.20;100814.50;5031597;27;45302;-73
2021/12/02 11:45:47;;;;;;;;;0.00;0.00;;;;;21.14;37.62;100812.69;5030543;27;45396;-73
2021/12/02 11:48:22;;;;;;;;;0.00;0.00;;;;;21.14;37.18;100821.47;5030495;27;45504;-73
2021/12/02 11:50:50;;;;;;;;;0.00;0.00;;;;;21.15;37.32;100822.28;5030234;27;47164;-73
2021/12/02 11:53:21;;;;;;;;;1.50;0.25;;;;;21.13;37.21;100817.16;5030742;28;45475;-73